createdAt,value
2019-03-17T00:00:53.379Z,16.00
2019-03-17T00:03:21.892Z,15.40
2019-03-17T00:05:50.373Z,14.70
2019-03-17T00:08:19.186Z,17.67
2019-03-17T00:11:06.500Z,14.43
2019-03-17T00:13:35.077Z,13.57
2019-03-17T00:16:04.069Z,15.27
2019-03-17T00:18:32.735Z,11.90
2019-03-17T00:21:01.150Z,11.00
2019-03-17T00:23:29.905Z,13.57
2019-03-17T00:25:58.635Z,11.10
2019-03-17T00:28:27.098Z,11.73
2019-03-17T00:30:55.743Z,14.63
2019-03-17T00:33:23.626Z,12.23
2019-03-17T00:35:51.558Z,12.07
2019-03-17T00:38:19.423Z,14.53
2019-03-17T00:40:47.629Z,10.90
2019-03-17T00:43:15.562Z,7.70
2019-03-17T00:45:43.365Z,7.30
2019-03-17T00:48:11.669Z,7.33
2019-03-17T00:50:39.590Z,3.97
2019-03-17T00:53:07.493Z,2.93
2019-03-17T00:55:36.069Z,2.47
2019-03-17T00:58:04.456Z,4.93
2019-03-17T01:00:33.030Z,3.87
2019-03-17T01:03:01.696Z,4.60
2019-03-17T01:05:31.515Z,4.57
2019-03-17T01:08:00.107Z,3.30
2019-03-17T01:10:28.482Z,2.33
2019-03-17T01:12:56.893Z,2.90
2019-03-17T01:15:25.549Z,3.43
2019-03-17T01:17:53.931Z,3.63
2019-03-17T01:20:22.433Z,2.27
2019-03-17T01:22:51.188Z,1.27
2019-03-17T01:25:20.508Z,1.10
2019-03-17T01:27:49.413Z,2.27
2019-03-17T01:30:18.070Z,4.40
2019-03-17T01:32:46.759Z,1.53
2019-03-17T01:35:15.267Z,4.83
2019-03-17T01:37:43.918Z,3.33
2019-03-17T01:40:12.602Z,2.57
2019-03-17T01:42:41.204Z,1.83
2019-03-17T01:45:09.847Z,3.43
2019-03-17T01:47:38.228Z,1.47
2019-03-17T01:50:06.752Z,3.43
2019-03-17T01:52:35.211Z,2.60
2019-03-17T01:55:03.820Z,2.83
2019-03-17T01:57:32.621Z,3.07
2019-03-17T02:00:01.591Z,1.37
2019-03-17T02:02:30.361Z,4.00
2019-03-17T02:04:59.079Z,4.00
2019-03-17T02:07:27.742Z,1.93
2019-03-17T02:09:56.236Z,3.43
2019-03-17T02:12:24.682Z,2.07
2019-03-17T02:14:53.390Z,2.50
2019-03-17T02:17:22.083Z,2.10
2019-03-17T02:19:50.358Z,2.20
2019-03-17T02:22:19.033Z,2.13
2019-03-17T02:24:48.938Z,3.87
2019-03-17T02:27:18.230Z,2.93
2019-03-17T02:29:46.620Z,2.67
2019-03-17T02:32:15.109Z,2.63
2019-03-17T02:34:43.741Z,3.27
2019-03-17T02:37:12.073Z,4.17
2019-03-17T02:39:40.850Z,3.37
2019-03-17T02:42:09.574Z,2.27
2019-03-17T02:44:37.924Z,2.70
2019-03-17T02:47:06.299Z,2.67
2019-03-17T02:49:35.023Z,4.07
2019-03-17T02:52:03.883Z,4.13
2019-03-17T02:54:32.557Z,5.47
2019-03-17T02:57:01.069Z,6.30
2019-03-17T02:59:29.451Z,6.03
2019-03-17T03:01:58.008Z,2.87
2019-03-17T03:04:26.513Z,4.20
2019-03-17T03:06:55.369Z,6.80
2019-03-17T03:09:24.062Z,3.77
2019-03-17T03:11:52.771Z,5.43
2019-03-17T03:14:21.115Z,4.27
2019-03-17T03:16:49.894Z,5.20
2019-03-17T03:19:18.622Z,6.10
2019-03-17T03:21:47.474Z,7.87
2019-03-17T03:24:15.866Z,6.87
2019-03-17T03:26:44.670Z,8.37
2019-03-17T03:29:13.331Z,6.00
2019-03-17T03:31:42.027Z,4.80
2019-03-17T03:34:10.746Z,4.83
2019-03-17T03:36:39.373Z,3.07
2019-03-17T03:39:07.884Z,6.03
2019-03-17T03:41:36.275Z,7.83
2019-03-17T03:44:05.031Z,4.47
2019-03-17T03:46:33.717Z,9.13
2019-03-17T03:49:02.241Z,5.07
2019-03-17T03:51:30.874Z,7.40
2019-03-17T03:53:59.929Z,6.03
2019-03-17T03:56:28.482Z,6.47
2019-03-17T03:58:57.146Z,5.67
2019-03-17T04:01:25.832Z,6.03
2019-03-17T04:03:54.358Z,4.60
2019-03-17T04:06:26.746Z,7.17
2019-03-17T04:08:53.336Z,7.33
2019-03-17T04:11:21.634Z,5.77
2019-03-17T04:13:49.464Z,7.10
2019-03-17T04:16:18.645Z,4.30
2019-03-17T04:18:46.571Z,10.03
2019-03-17T04:21:14.466Z,10.13
2019-03-17T04:23:42.413Z,9.40
2019-03-17T04:26:10.349Z,6.27
2019-03-17T04:28:39.393Z,9.97
2019-03-17T04:31:07.813Z,8.33
2019-03-17T04:33:36.525Z,5.50
2019-03-17T04:36:04.974Z,8.03
2019-03-17T04:38:33.649Z,6.20
2019-03-17T04:41:02.383Z,9.67
2019-03-17T04:43:31.844Z,9.30
2019-03-17T04:46:00.537Z,10.03
2019-03-17T04:48:29.038Z,10.40
2019-03-17T04:50:57.690Z,9.80
2019-03-17T04:53:26.167Z,9.37
2019-03-17T04:55:54.906Z,10.43
2019-03-17T04:58:24.373Z,12.67
2019-03-17T05:00:52.858Z,8.50
2019-03-17T05:03:21.770Z,12.17
2019-03-17T05:05:50.507Z,12.83
2019-03-17T05:08:19.005Z,9.80
2019-03-17T05:10:47.627Z,10.83
2019-03-17T05:13:16.281Z,13.07
2019-03-17T05:15:44.977Z,7.00
2019-03-17T05:18:14.473Z,8.07
2019-03-17T05:20:42.729Z,9.00
2019-03-17T05:23:11.423Z,12.43
2019-03-17T05:25:39.851Z,8.73
2019-03-17T05:28:08.295Z,10.13
2019-03-17T05:30:37.080Z,5.80
2019-03-17T05:33:05.804Z,7.60
2019-03-17T05:35:34.341Z,10.47
2019-03-17T05:38:02.726Z,6.97
2019-03-17T05:40:31.146Z,10.93
2019-03-17T05:42:59.895Z,8.43
2019-03-17T05:45:28.588Z,8.03
2019-03-17T05:47:57.312Z,8.63
2019-03-17T05:50:25.947Z,6.80
2019-03-17T05:52:54.633Z,7.47
2019-03-17T05:55:23.220Z,6.27
2019-03-17T05:57:52.417Z,7.33
2019-03-17T06:00:21.089Z,8.80
2019-03-17T06:02:49.823Z,8.37
2019-03-17T06:05:18.158Z,8.10
2019-03-17T06:07:46.661Z,7.33
2019-03-17T06:10:15.041Z,8.93
2019-03-17T06:12:43.705Z,6.23
2019-03-17T06:15:11.989Z,6.77
2019-03-17T06:17:40.696Z,5.90
2019-03-17T06:20:09.362Z,11.27
2019-03-17T06:22:38.858Z,7.47
2019-03-17T06:25:08.047Z,5.87
2019-03-17T06:27:36.337Z,9.97
2019-03-17T06:30:05.428Z,5.90
2019-03-17T06:32:33.907Z,7.93
2019-03-17T06:35:02.501Z,5.63
2019-03-17T06:37:31.474Z,8.53
2019-03-17T06:40:00.474Z,7.07
2019-03-17T06:42:29.385Z,5.13
2019-03-17T06:44:57.653Z,10.40
2019-03-17T06:47:26.175Z,5.87
2019-03-17T06:49:54.804Z,5.27
2019-03-17T06:52:23.745Z,6.47
2019-03-17T06:54:52.308Z,7.03
2019-03-17T06:57:20.566Z,6.30
2019-03-17T06:59:48.930Z,7.43
2019-03-17T07:02:18.380Z,5.37
2019-03-17T07:04:46.956Z,6.37
2019-03-17T07:07:15.651Z,5.17
2019-03-17T07:09:44.105Z,4.67
2019-03-17T07:12:16.939Z,4.43
2019-03-17T07:14:45.563Z,9.17
2019-03-17T07:17:13.960Z,5.70
2019-03-17T07:19:42.764Z,7.77
2019-03-17T07:22:11.738Z,5.40
2019-03-17T07:24:40.872Z,7.73
2019-03-17T07:27:10.720Z,9.67
2019-03-17T07:29:58.152Z,5.73
2019-03-17T07:32:27.119Z,7.90
2019-03-17T07:34:56.007Z,8.07
2019-03-17T07:37:25.203Z,6.93
2019-03-17T07:39:54.433Z,6.73
2019-03-17T07:42:23.048Z,7.00
2019-03-17T07:44:52.163Z,5.67
2019-03-17T07:47:20.881Z,11.03
2019-03-17T07:49:49.815Z,4.70
2019-03-17T07:52:18.704Z,7.40
2019-03-17T07:54:47.572Z,5.43
2019-03-17T07:57:17.288Z,5.63
2019-03-17T07:59:47.816Z,6.23
2019-03-17T08:02:16.862Z,5.20
2019-03-17T08:04:46.784Z,3.47
2019-03-17T08:07:16.216Z,6.03
2019-03-17T08:09:44.502Z,5.53
2019-03-17T08:12:13.193Z,6.83
2019-03-17T08:14:42.061Z,5.93
2019-03-17T08:17:10.650Z,3.40
2019-03-17T08:19:39.923Z,3.70
2019-03-17T08:22:08.660Z,4.17
2019-03-17T08:24:38.019Z,6.00
2019-03-17T08:27:07.432Z,6.57
2019-03-17T08:29:36.265Z,5.80
2019-03-17T08:32:06.335Z,4.77
2019-03-17T08:34:35.070Z,4.80
2019-03-17T08:37:03.845Z,3.67
2019-03-17T08:39:32.610Z,4.43
2019-03-17T08:42:01.542Z,4.17
2019-03-17T08:44:30.566Z,5.53
2019-03-17T08:46:59.894Z,5.23
2019-03-17T08:49:29.898Z,6.90
2019-03-17T08:51:59.271Z,4.43
2019-03-17T08:54:28.002Z,3.80
2019-03-17T08:56:55.940Z,8.57
2019-03-17T08:59:23.994Z,5.77
2019-03-17T09:01:51.931Z,4.13
2019-03-17T09:04:19.893Z,4.23
2019-03-17T09:06:48.311Z,4.73
2019-03-17T09:09:16.625Z,5.90
2019-03-17T09:11:45.325Z,5.50
2019-03-17T09:14:14.107Z,6.13
2019-03-17T09:16:42.868Z,6.57
2019-03-17T09:19:11.557Z,5.60
2019-03-17T09:21:40.066Z,4.37
2019-03-17T09:24:17.118Z,6.93
2019-03-17T09:26:38.928Z,4.37
2019-03-17T09:29:07.575Z,4.40
2019-03-17T09:31:37.471Z,5.23
2019-03-17T09:34:06.162Z,7.20
2019-03-17T09:36:35.188Z,5.00
2019-03-17T09:39:05.201Z,4.07
2019-03-17T09:41:33.834Z,5.80
2019-03-17T09:44:02.645Z,5.27
2019-03-17T09:46:31.025Z,4.90
2019-03-17T09:48:59.695Z,4.73
2019-03-17T09:51:28.415Z,4.33
2019-03-17T09:53:56.854Z,4.73
2019-03-17T09:56:25.901Z,3.27
2019-03-17T09:58:54.370Z,4.53
2019-03-17T10:01:23.430Z,5.37
2019-03-17T10:03:51.430Z,5.37
2019-03-17T10:06:19.800Z,5.27
2019-03-17T10:08:59.477Z,7.83
2019-03-17T10:11:17.960Z,4.67
2019-03-17T10:13:47.194Z,4.97
2019-03-17T10:16:15.854Z,6.07
2019-03-17T10:18:43.641Z,4.73
2019-03-17T10:21:11.926Z,4.93
2019-03-17T10:23:40.474Z,6.50
2019-03-17T10:26:09.178Z,6.03
2019-03-17T10:28:38.521Z,6.00
2019-03-17T10:31:07.150Z,6.77
2019-03-17T10:33:35.132Z,6.07
2019-03-17T10:36:03.725Z,5.63
2019-03-17T10:38:32.083Z,7.83
2019-03-17T10:41:00.865Z,4.97
2019-03-17T10:43:29.567Z,4.97
2019-03-17T10:45:58.022Z,7.33
2019-03-17T10:48:26.729Z,7.13
2019-03-17T10:50:55.440Z,6.37
2019-03-17T10:53:24.358Z,5.30
2019-03-17T10:55:53.193Z,7.17
2019-03-17T10:58:21.931Z,4.50
2019-03-17T11:01:01.564Z,6.57
2019-03-17T11:03:30.485Z,6.87
2019-03-17T11:05:59.296Z,5.70
2019-03-17T11:08:27.796Z,7.10
2019-03-17T11:10:56.668Z,5.93
2019-03-17T11:13:25.894Z,6.60
2019-03-17T11:15:56.598Z,7.03
2019-03-17T11:18:25.075Z,5.93
2019-03-17T11:20:53.774Z,6.73
2019-03-17T11:23:22.484Z,4.97
2019-03-17T11:25:51.150Z,5.33
2019-03-17T11:28:19.822Z,5.03
2019-03-17T11:30:56.809Z,6.30
2019-03-17T11:33:25.600Z,6.07
2019-03-17T11:35:54.074Z,5.97
2019-03-17T11:38:23.243Z,6.07
2019-03-17T11:40:52.042Z,5.57
2019-03-17T11:43:20.766Z,5.83
2019-03-17T11:45:49.457Z,5.47
2019-03-17T11:48:18.108Z,4.87
2019-03-17T11:50:46.376Z,5.67
2019-03-17T11:53:15.379Z,4.30
2019-03-17T11:55:44.185Z,4.87
2019-03-17T11:58:13.787Z,6.60
2019-03-17T12:00:42.589Z,5.87
2019-03-17T12:03:11.243Z,7.27
2019-03-17T12:05:43.726Z,5.00
2019-03-17T12:08:12.490Z,3.43
2019-03-17T12:10:47.902Z,4.67
2019-03-17T12:13:17.570Z,6.53
2019-03-17T12:15:46.335Z,4.40
2019-03-17T12:18:14.859Z,5.03
2019-03-17T12:20:43.577Z,4.93
2019-03-17T12:23:12.005Z,4.90
2019-03-17T12:25:40.422Z,3.40
2019-03-17T12:28:09.166Z,4.47
2019-03-17T12:30:37.667Z,4.87
2019-03-17T12:33:06.657Z,5.87
2019-03-17T12:35:35.255Z,4.33
2019-03-17T12:38:09.579Z,5.20
2019-03-17T12:40:38.371Z,6.77
2019-03-17T12:43:07.451Z,6.67
2019-03-17T12:45:36.259Z,5.77
2019-03-17T12:48:05.001Z,4.07
2019-03-17T12:50:33.894Z,6.50
2019-03-17T12:53:02.657Z,5.60
2019-03-17T12:55:46.972Z,6.27
2019-03-17T12:58:16.510Z,5.40
2019-03-17T13:00:45.017Z,8.53
2019-03-17T13:03:13.703Z,7.70
2019-03-17T13:05:43.307Z,5.87
2019-03-17T13:08:12.101Z,8.23
2019-03-17T13:10:41.185Z,5.83
2019-03-17T13:13:09.930Z,5.93
2019-03-17T13:15:38.306Z,7.90
2019-03-17T13:18:07.034Z,4.83
2019-03-17T13:20:41.920Z,4.80
2019-03-17T13:23:11.161Z,4.83
2019-03-17T13:25:39.859Z,2.07
2019-03-17T13:28:08.273Z,2.80
2019-03-17T13:30:36.924Z,4.63
2019-03-17T13:33:04.721Z,5.17
2019-03-17T13:35:39.134Z,4.43
2019-03-17T13:38:07.956Z,2.73
2019-03-17T13:40:35.750Z,3.63
2019-03-17T13:43:04.145Z,4.07
2019-03-17T13:45:31.954Z,2.53
2019-03-17T13:47:59.907Z,1.93
2019-03-17T13:50:27.849Z,3.33
2019-03-17T13:52:55.775Z,3.00
2019-03-17T13:55:23.703Z,2.50
2019-03-17T13:57:53.935Z,1.93
2019-03-17T14:00:22.458Z,3.37
2019-03-17T14:02:50.287Z,5.13
2019-03-17T14:05:18.113Z,2.70
2019-03-17T14:07:46.030Z,5.93
2019-03-17T14:10:15.173Z,3.83
2019-03-17T14:12:43.868Z,2.53
2019-03-17T14:15:12.841Z,5.17
2019-03-17T14:17:41.517Z,5.43
2019-03-17T14:20:12.177Z,3.33
2019-03-17T14:22:40.647Z,4.80
2019-03-17T14:25:12.182Z,5.83
2019-03-17T14:27:40.705Z,4.40
2019-03-17T14:30:11.087Z,3.87
2019-03-17T14:32:39.475Z,4.17
2019-03-17T14:35:08.468Z,5.63
2019-03-17T14:37:37.227Z,5.50
2019-03-17T14:40:06.063Z,4.30
2019-03-17T14:42:33.963Z,3.77
2019-03-17T14:45:01.851Z,3.37
2019-03-17T14:47:29.756Z,4.57
2019-03-17T14:49:57.728Z,2.63
2019-03-17T14:52:25.703Z,5.60
2019-03-17T14:54:53.966Z,6.23
2019-03-17T14:57:22.013Z,7.40
2019-03-17T14:59:49.926Z,2.83
2019-03-17T15:02:17.871Z,6.80
2019-03-17T15:04:45.834Z,4.60
2019-03-17T15:07:13.713Z,5.27
2019-03-17T15:09:41.639Z,4.30
2019-03-17T15:12:09.557Z,3.90
2019-03-17T15:14:37.458Z,4.43
2019-03-17T15:17:05.348Z,3.90
2019-03-17T15:19:33.271Z,5.83
2019-03-17T15:22:01.073Z,4.83
2019-03-17T15:24:29.141Z,4.47
2019-03-17T15:26:57.073Z,4.90
2019-03-17T15:29:24.988Z,3.83
2019-03-17T15:31:52.893Z,3.00
2019-03-17T15:34:21.892Z,2.97
2019-03-17T15:36:49.775Z,3.50
2019-03-17T15:39:17.648Z,2.13
2019-03-17T15:41:45.553Z,2.97
2019-03-17T15:44:13.444Z,5.43
2019-03-17T15:46:41.341Z,2.47
2019-03-17T15:49:09.256Z,3.00
2019-03-17T15:51:37.156Z,6.63
2019-03-17T15:54:05.064Z,4.20
2019-03-17T15:56:33.078Z,2.33
2019-03-17T15:59:00.998Z,4.00
2019-03-17T16:01:29.304Z,4.03
2019-03-17T16:03:57.257Z,3.93
2019-03-17T16:06:25.061Z,3.00
2019-03-17T16:08:52.985Z,3.43
2019-03-17T16:11:30.472Z,5.07
2019-03-17T16:13:50.762Z,4.80
2019-03-17T16:16:19.197Z,5.73
2019-03-17T16:18:47.091Z,8.23
2019-03-17T16:21:15.006Z,8.13
2019-03-17T16:23:42.818Z,5.70
2019-03-17T16:26:13.038Z,10.53
2019-03-17T16:28:41.032Z,3.83
2019-03-17T16:31:11.127Z,4.37
2019-03-17T16:33:38.714Z,5.73
2019-03-17T16:36:06.826Z,5.73
2019-03-17T16:38:34.759Z,4.80
2019-03-17T16:41:03.256Z,4.73
2019-03-17T16:43:31.177Z,7.53
2019-03-17T16:45:59.008Z,4.83
2019-03-17T16:48:26.952Z,6.27
2019-03-17T16:50:55.189Z,5.07
2019-03-17T16:53:23.016Z,4.27
2019-03-17T16:55:50.950Z,5.17
2019-03-17T16:58:18.846Z,4.63
2019-03-17T17:00:47.016Z,5.93
2019-03-17T17:03:14.954Z,5.40
2019-03-17T17:05:43.480Z,4.50
2019-03-17T17:08:11.500Z,4.30
2019-03-17T17:10:39.674Z,4.10
2019-03-17T17:13:08.967Z,4.37
2019-03-17T17:15:37.565Z,4.37
2019-03-17T17:18:06.012Z,4.60
2019-03-17T17:20:35.987Z,3.97
2019-03-17T17:23:04.680Z,2.67
2019-03-17T17:25:33.335Z,6.07
2019-03-17T17:28:02.209Z,3.50
2019-03-17T17:30:31.079Z,6.33
2019-03-17T17:32:59.985Z,5.60
2019-03-17T17:35:28.630Z,5.37
2019-03-17T17:37:57.311Z,6.63
2019-03-17T17:40:26.033Z,3.63
2019-03-17T17:43:00.360Z,4.30
2019-03-17T17:45:29.020Z,4.53
2019-03-17T17:47:57.586Z,6.67
2019-03-17T17:50:26.639Z,5.73
2019-03-17T17:52:55.282Z,7.83
2019-03-17T17:55:23.650Z,9.97
2019-03-17T17:57:53.345Z,9.57
2019-03-17T18:00:22.603Z,8.93
2019-03-17T18:02:51.409Z,7.50
2019-03-17T18:05:24.632Z,10.23
2019-03-17T18:07:54.258Z,7.67
2019-03-17T18:10:25.630Z,11.40
2019-03-17T18:12:54.421Z,9.50
2019-03-17T18:15:23.402Z,6.00
2019-03-17T18:17:52.803Z,8.80
2019-03-17T18:20:21.654Z,9.77
2019-03-17T18:22:53.063Z,8.97
2019-03-17T18:25:23.295Z,10.67
2019-03-17T18:27:52.302Z,8.57
2019-03-17T18:30:21.053Z,6.80
2019-03-17T18:32:49.986Z,7.63
2019-03-17T18:35:18.369Z,7.20
2019-03-17T18:37:47.183Z,9.53
2019-03-17T18:40:16.026Z,6.97
2019-03-17T18:42:45.921Z,8.60
2019-03-17T18:45:16.581Z,10.13
2019-03-17T18:47:45.371Z,6.93
2019-03-17T18:50:20.213Z,7.27
2019-03-17T18:52:45.394Z,6.57
2019-03-17T18:55:14.037Z,10.70
2019-03-17T18:57:42.621Z,12.40
2019-03-17T19:00:14.780Z,12.23
2019-03-17T19:02:43.204Z,10.23
2019-03-17T19:05:12.087Z,11.73
2019-03-17T19:07:49.854Z,8.30
2019-03-17T19:10:18.712Z,9.73
2019-03-17T19:12:47.137Z,7.50
2019-03-17T19:15:15.864Z,9.57
2019-03-17T19:17:44.420Z,8.47
2019-03-17T19:20:13.850Z,10.20
2019-03-17T19:22:43.610Z,12.57
2019-03-17T19:25:12.715Z,9.87
2019-03-17T19:27:41.558Z,12.13
2019-03-17T19:30:12.614Z,10.20
2019-03-17T19:32:41.101Z,11.47
2019-03-17T19:35:11.073Z,11.10
2019-03-17T19:37:40.002Z,9.80
2019-03-17T19:40:10.697Z,12.50
2019-03-17T19:42:41.207Z,11.27
2019-03-17T19:45:10.434Z,8.97
2019-03-17T19:47:39.418Z,11.13
2019-03-17T19:50:08.973Z,10.33
2019-03-17T19:52:37.860Z,8.67
2019-03-17T19:55:06.505Z,9.40
2019-03-17T19:57:36.387Z,10.90
2019-03-17T20:00:05.674Z,9.97
2019-03-17T20:02:34.150Z,8.47
2019-03-17T20:05:03.113Z,9.87
2019-03-17T20:07:31.902Z,11.67
2019-03-17T20:10:00.655Z,8.10
2019-03-17T20:12:29.631Z,8.50
2019-03-17T20:14:58.364Z,8.77
2019-03-17T20:17:26.863Z,11.40
2019-03-17T20:19:55.580Z,7.40
2019-03-17T20:22:24.243Z,7.67
2019-03-17T20:24:52.873Z,11.77
2019-03-17T20:27:21.635Z,10.17
2019-03-17T20:29:50.759Z,8.80
2019-03-17T20:32:20.424Z,9.07
2019-03-17T20:34:49.150Z,7.53
2019-03-17T20:37:18.066Z,10.70
2019-03-17T20:39:47.966Z,8.63
2019-03-17T20:42:16.919Z,8.13
2019-03-17T20:44:45.717Z,11.77
2019-03-17T20:47:14.581Z,12.77
2019-03-17T20:49:46.733Z,8.03
2019-03-17T20:52:15.450Z,9.03
2019-03-17T20:54:44.134Z,9.30
2019-03-17T20:57:12.874Z,10.97
2019-03-17T20:59:41.555Z,8.93
2019-03-17T21:02:10.228Z,10.90
2019-03-17T21:04:38.935Z,8.87
2019-03-17T21:07:07.583Z,9.30
2019-03-17T21:09:36.548Z,8.50
2019-03-17T21:12:05.516Z,11.57
2019-03-17T21:14:34.259Z,11.13
2019-03-17T21:17:02.873Z,10.23
2019-03-17T21:19:31.815Z,8.17
2019-03-17T21:22:00.151Z,8.07
2019-03-17T21:24:28.929Z,10.50
2019-03-17T21:26:57.659Z,11.27
2019-03-17T21:29:27.241Z,11.13
2019-03-17T21:31:56.015Z,9.00
2019-03-17T21:34:24.959Z,12.37
2019-03-17T21:36:53.784Z,10.93
2019-03-17T21:39:22.484Z,10.40
2019-03-17T21:41:51.299Z,11.47
2019-03-17T21:44:20.887Z,10.40
2019-03-17T21:46:49.475Z,10.10
2019-03-17T21:49:18.273Z,12.20
2019-03-17T21:51:47.934Z,11.60
2019-03-17T21:54:18.003Z,11.50
2019-03-17T21:56:46.758Z,10.80
2019-03-17T21:59:15.464Z,11.43
2019-03-17T22:01:43.933Z,10.90
2019-03-17T22:04:12.726Z,12.97
2019-03-17T22:06:41.220Z,11.30
2019-03-17T22:09:10.014Z,15.50
2019-03-17T22:11:38.475Z,14.40
2019-03-17T22:14:11.991Z,15.70
2019-03-17T22:16:37.406Z,12.33
2019-03-17T22:19:06.151Z,10.03
2019-03-17T22:21:34.813Z,13.33
2019-03-17T22:24:04.337Z,12.03
2019-03-17T22:26:32.714Z,11.60
2019-03-17T22:29:01.482Z,13.33
2019-03-17T22:31:30.250Z,10.63
2019-03-17T22:33:58.869Z,10.17
2019-03-17T22:36:27.555Z,11.17
2019-03-17T22:38:56.277Z,13.23
2019-03-17T22:41:24.950Z,12.67
2019-03-17T22:43:53.614Z,13.93
2019-03-17T22:46:23.266Z,10.60
2019-03-17T22:48:51.804Z,14.70
2019-03-17T22:51:20.486Z,13.87
2019-03-17T22:53:49.213Z,12.93
2019-03-17T22:56:18.129Z,10.57
2019-03-17T22:58:46.453Z,12.33
2019-03-17T23:01:15.346Z,12.80
2019-03-17T23:03:44.112Z,11.27
2019-03-17T23:06:12.857Z,9.83
2019-03-17T23:08:41.413Z,11.40
2019-03-17T23:11:10.178Z,11.87
2019-03-17T23:13:38.660Z,11.60
2019-03-17T23:16:08.721Z,12.87
2019-03-17T23:18:37.458Z,12.00
2019-03-17T23:21:06.161Z,12.97
2019-03-17T23:23:34.666Z,10.23
2019-03-17T23:26:03.314Z,11.30
2019-03-17T23:28:32.010Z,17.47
2019-03-17T23:31:00.221Z,12.27
2019-03-17T23:33:29.167Z,11.23
2019-03-17T23:35:57.643Z,13.70
2019-03-17T23:38:26.362Z,14.70
2019-03-17T23:40:55.022Z,16.47
2019-03-17T23:43:23.706Z,10.87
2019-03-17T23:45:52.443Z,10.53
2019-03-17T23:48:21.090Z,10.97
2019-03-17T23:50:49.761Z,11.67
2019-03-17T23:53:18.465Z,13.53
2019-03-17T23:55:48.149Z,15.90
2019-03-17T23:58:16.640Z,14.23
